createdAt,value
2022-10-24T00:01:09.524Z,100228.06
2022-10-24T00:03:36.208Z,100222.97
2022-10-24T00:06:05.881Z,100227.59
2022-10-24T00:08:32.649Z,100223.88
2022-10-24T00:10:59.190Z,100228.88
2022-10-24T00:13:25.961Z,100226.09
2022-10-24T00:15:52.516Z,100219.06
2022-10-24T00:18:19.113Z,100220.69
2022-10-24T00:20:45.703Z,100221.75
2022-10-24T00:23:13.653Z,100220.78
2022-10-24T00:25:40.432Z,100226.38
2022-10-24T00:28:06.972Z,100214.47
2022-10-24T00:30:33.580Z,100223.88
2022-10-24T00:33:00.287Z,100215.75
2022-10-24T00:35:27.124Z,100209.84
2022-10-24T00:37:53.759Z,100211.25
2022-10-24T00:40:21.088Z,100204.84
2022-10-24T00:42:48.745Z,100204.03
2022-10-24T00:45:53.132Z,100211.66
2022-10-24T00:48:33.618Z,100213.69
2022-10-24T00:51:21.513Z,100202.03
2022-10-24T00:53:50.818Z,100203.78
2022-10-24T00:56:21.324Z,100213.69
2022-10-24T00:58:49.983Z,100217.69
2022-10-24T01:01:16.773Z,100212.88
2022-10-24T01:03:43.427Z,100215.28
2022-10-24T01:06:31.693Z,100213.28
2022-10-24T01:09:14.861Z,100216.47
2022-10-24T01:12:28.353Z,100210.06
2022-10-24T01:15:18.854Z,100209.06
2022-10-24T01:17:56.364Z,100205.06
2022-10-24T01:20:25.540Z,100211.91
2022-10-24T01:23:07.127Z,100200.09
2022-10-24T01:25:56.196Z,100193.06
2022-10-24T01:28:32.727Z,100204.50
2022-10-24T01:31:10.055Z,100190.16
2022-10-24T01:33:42.546Z,100188.81
2022-10-24T01:36:20.775Z,100189.84
2022-10-24T01:39:12.864Z,100184.44
2022-10-24T01:41:41.735Z,100188.28
2022-10-24T01:44:24.696Z,100175.72
2022-10-24T01:46:56.525Z,100172.81
2022-10-24T01:49:28.451Z,100172.22
2022-10-24T01:51:59.996Z,100184.94
2022-10-24T01:54:27.864Z,100181.66
2022-10-24T01:56:54.390Z,100177.81
2022-10-24T01:59:29.828Z,100172.41
2022-10-24T02:02:11.941Z,100175.72
2022-10-24T02:04:45.954Z,100174.91
2022-10-24T02:07:14.123Z,100185.94
2022-10-24T02:09:43.419Z,100192.13
2022-10-24T02:12:13.593Z,100193.25
2022-10-24T02:14:46.481Z,100184.34
2022-10-24T02:17:13.171Z,100188.94
2022-10-24T02:19:39.827Z,100187.56
2022-10-24T02:22:28.201Z,100182.59
2022-10-24T02:25:07.013Z,100184.84
2022-10-24T02:27:42.659Z,100184.22
2022-10-24T02:30:15.809Z,100178.19
2022-10-24T02:32:45.653Z,100177.59
2022-10-24T02:35:15.684Z,100164.06
2022-10-24T02:37:50.258Z,100164.38
2022-10-24T02:40:19.941Z,100159.75
2022-10-24T02:42:47.940Z,100169.78
2022-10-24T02:45:16.332Z,100163.38
2022-10-24T02:47:45.007Z,100167.56
2022-10-24T02:50:13.497Z,100167.28
2022-10-24T02:52:41.678Z,100169.34
2022-10-24T02:55:08.935Z,100172.88
2022-10-24T02:57:35.558Z,100162.56
2022-10-24T03:00:02.131Z,100160.34
2022-10-24T03:02:28.715Z,100161.31
2022-10-24T03:04:55.254Z,100155.72
2022-10-24T03:07:21.991Z,100150.31
2022-10-24T03:09:48.577Z,100158.13
2022-10-24T03:12:16.808Z,100161.78
2022-10-24T03:14:45.219Z,100164.50
2022-10-24T03:17:11.875Z,100166.91
2022-10-24T03:19:38.528Z,100179.34
2022-10-24T03:22:05.295Z,100182.56
2022-10-24T03:24:43.727Z,100174.59
2022-10-24T03:27:18.488Z,100192.16
2022-10-24T03:29:45.046Z,100185.31
2022-10-24T03:32:11.675Z,100198.56
2022-10-24T03:34:38.431Z,100205.25
2022-10-24T03:37:05.174Z,100202.72
2022-10-24T03:39:31.824Z,100202.13
2022-10-24T03:41:58.295Z,100192.88
2022-10-24T03:44:25.040Z,100203.91
2022-10-24T03:46:51.653Z,100200.28
2022-10-24T03:49:18.184Z,100206.69
2022-10-24T03:51:44.922Z,100190.91
2022-10-24T03:54:13.101Z,100196.81
2022-10-24T03:56:39.779Z,100200.03
2022-10-24T03:59:06.364Z,100198.94
2022-10-24T04:01:33.138Z,100186.50
2022-10-24T04:03:59.793Z,100183.91
2022-10-24T04:06:26.446Z,100179.25
2022-10-24T04:08:53.016Z,100183.03
2022-10-24T04:11:19.842Z,100188.84
2022-10-24T04:13:46.446Z,100189.34
2022-10-24T04:16:13.045Z,100183.41
2022-10-24T04:18:39.645Z,100186.25
2022-10-24T04:21:06.537Z,100187.47
2022-10-24T04:23:35.753Z,100184.16
2022-10-24T04:26:02.318Z,100193.50
2022-10-24T04:28:30.067Z,100195.91
2022-10-24T04:30:57.322Z,100199.28
2022-10-24T04:33:24.461Z,100198.25
2022-10-24T04:35:52.361Z,100197.03
2022-10-24T04:38:19.391Z,100201.00
2022-10-24T04:40:48.673Z,100192.69
2022-10-24T04:43:15.747Z,100187.22
2022-10-24T04:45:42.328Z,100181.50
2022-10-24T04:48:09.031Z,100189.63
2022-10-24T04:50:35.788Z,100186.63
2022-10-24T04:53:03.145Z,100181.38
2022-10-24T04:55:30.177Z,100168.31
2022-10-24T04:57:56.792Z,100175.16
2022-10-24T05:00:23.671Z,100188.34
2022-10-24T05:02:52.975Z,100190.19
2022-10-24T05:05:22.141Z,100194.50
2022-10-24T05:07:49.094Z,100196.91
2022-10-24T05:10:16.751Z,100201.34
2022-10-24T05:12:44.589Z,100204.16
2022-10-24T05:15:11.874Z,100208.41
2022-10-24T05:17:38.406Z,100201.50
2022-10-24T05:20:05.579Z,100205.44
2022-10-24T05:22:32.141Z,100209.84
2022-10-24T05:24:58.783Z,100200.75
2022-10-24T05:27:25.346Z,100209.44
2022-10-24T05:29:53.348Z,100217.47
2022-10-24T05:32:22.234Z,100223.38
2022-10-24T05:34:48.994Z,100230.88
2022-10-24T05:37:15.728Z,100234.69
2022-10-24T05:39:42.270Z,100236.41
2022-10-24T05:42:09.560Z,100240.13
2022-10-24T05:44:36.153Z,100240.28
2022-10-24T05:47:02.822Z,100249.91
2022-10-24T05:49:29.611Z,100257.22
2022-10-24T05:51:56.302Z,100253.94
2022-10-24T05:54:22.933Z,100260.34
2022-10-24T05:56:49.591Z,100250.09
2022-10-24T05:59:16.182Z,100254.72
2022-10-24T06:01:43.090Z,100254.44
2022-10-24T06:04:12.886Z,100252.88
2022-10-24T06:06:42.352Z,100247.28
2022-10-24T06:09:09.449Z,100250.53
2022-10-24T06:11:36.246Z,100260.34
2022-10-24T06:14:03.924Z,100261.28
2022-10-24T06:16:30.865Z,100266.19
2022-10-24T06:18:57.879Z,100264.56
2022-10-24T06:21:25.069Z,100266.38
2022-10-24T06:23:51.946Z,100271.19
2022-10-24T06:26:21.692Z,100271.56
2022-10-24T06:28:50.624Z,100288.00
2022-10-24T06:31:18.562Z,100275.59
2022-10-24T06:33:45.121Z,100281.16
2022-10-24T06:36:12.106Z,100277.06
2022-10-24T06:38:38.717Z,100275.38
2022-10-24T06:41:07.552Z,100280.94
2022-10-24T06:43:34.121Z,100291.97
2022-10-24T06:46:05.476Z,100290.84
2022-10-24T06:48:32.175Z,100294.56
2022-10-24T06:50:58.741Z,100291.84
2022-10-24T06:53:25.301Z,100289.16
2022-10-24T06:55:51.916Z,100309.22
2022-10-24T06:58:18.474Z,100303.19
2022-10-24T07:00:45.499Z,100296.19
2022-10-24T07:03:15.946Z,100300.38
2022-10-24T07:05:42.942Z,100300.25
2022-10-24T07:08:10.968Z,100306.34
2022-10-24T07:10:37.706Z,100313.38
2022-10-24T07:13:04.237Z,100320.19
2022-10-24T07:15:30.826Z,100312.38
2022-10-24T07:17:57.361Z,100306.78
2022-10-24T07:20:23.964Z,100310.72
2022-10-24T07:22:50.609Z,100319.03
2022-10-24T07:25:18.328Z,100325.47
2022-10-24T07:27:44.883Z,100322.25
2022-10-24T07:30:17.370Z,100315.44
2022-10-24T07:32:44.268Z,100319.44
2022-10-24T07:35:12.892Z,100328.97
2022-10-24T07:37:39.798Z,100333.88
2022-10-24T07:40:07.104Z,100332.47
2022-10-24T07:42:33.831Z,100325.84
2022-10-24T07:45:00.601Z,100336.25
2022-10-24T07:47:27.252Z,100336.66
2022-10-24T07:49:54.272Z,100334.31
2022-10-24T07:52:20.915Z,100333.22
2022-10-24T07:54:47.436Z,100332.31
2022-10-24T07:57:14.137Z,100331.59
2022-10-24T07:59:42.713Z,100333.38
2022-10-24T08:02:13.908Z,100327.53
2022-10-24T08:04:41.302Z,100328.25
2022-10-24T08:07:13.275Z,100328.00
2022-10-24T08:09:42.638Z,100322.44
2022-10-24T08:12:09.548Z,100321.53
2022-10-24T08:14:41.333Z,100320.97
2022-10-24T08:17:08.115Z,100334.13
2022-10-24T08:19:35.185Z,100324.59
2022-10-24T08:22:02.416Z,100322.41
2022-10-24T08:24:29.231Z,100317.84
2022-10-24T08:26:56.805Z,100328.47
2022-10-24T08:29:23.768Z,100326.09
2022-10-24T08:31:53.222Z,100330.75
2022-10-24T08:34:20.497Z,100330.06
2022-10-24T08:36:48.563Z,100325.28
2022-10-24T08:39:16.377Z,100328.63
2022-10-24T08:41:47.016Z,100313.53
2022-10-24T08:44:26.898Z,100309.44
2022-10-24T08:47:26.142Z,100295.66
2022-10-24T08:49:57.562Z,100301.97
2022-10-24T08:52:31.168Z,100312.81
2022-10-24T08:55:04.737Z,100320.66
2022-10-24T09:00:27.738Z,100320.97
2022-10-24T09:03:43.874Z,100307.56
2022-10-24T09:06:30.398Z,100306.47
2022-10-24T09:09:15.450Z,100309.25
2022-10-24T09:11:57.042Z,100312.97
2022-10-24T09:14:27.825Z,100310.41
2022-10-24T09:19:55.608Z,100322.75
2022-10-24T09:22:25.461Z,100323.22
2022-10-24T09:25:01.320Z,100329.13
2022-10-24T09:27:30.920Z,100330.06
2022-10-24T09:29:58.775Z,100329.09
2022-10-24T09:32:30.681Z,100328.59
2022-10-24T09:35:09.087Z,100332.22
2022-10-24T09:37:49.417Z,100334.06
2022-10-24T09:40:21.310Z,100334.34
2022-10-24T09:43:17.452Z,100322.94
2022-10-24T09:45:48.448Z,100339.16
2022-10-24T09:48:17.696Z,100338.69
2022-10-24T09:50:46.888Z,100336.81
2022-10-24T09:53:24.969Z,100337.09
2022-10-24T09:55:56.447Z,100338.19
2022-10-24T09:58:32.601Z,100354.09
2022-10-24T10:01:22.657Z,100349.63
2022-10-24T10:04:09.045Z,100339.91
2022-10-24T10:06:45.257Z,100346.06
2022-10-24T10:09:15.010Z,100336.53
2022-10-24T10:11:49.518Z,100337.88
2022-10-24T10:14:29.321Z,100349.22
2022-10-24T10:17:02.486Z,100341.03
2022-10-24T10:19:36.480Z,100355.53
2022-10-24T10:22:22.887Z,100368.34
2022-10-24T10:24:49.672Z,100359.50
2022-10-24T10:27:40.571Z,100367.75
2022-10-24T10:30:16.388Z,100371.56
2022-10-24T10:33:06.689Z,100373.56
2022-10-24T10:35:44.567Z,100373.31
2022-10-24T10:38:51.328Z,100374.06
2022-10-24T10:41:33.193Z,100381.75
2022-10-24T10:43:59.701Z,100376.00
2022-10-24T10:46:48.693Z,100378.09
2022-10-24T10:49:24.887Z,100363.00
2022-10-24T10:52:03.015Z,100366.91
2022-10-24T10:55:05.559Z,100359.22
2022-10-24T10:57:54.109Z,100353.94
2022-10-24T11:00:38.445Z,100359.84
2022-10-24T11:03:20.952Z,100355.34
2022-10-24T11:06:09.065Z,100355.44
2022-10-24T11:08:53.946Z,100361.50
2022-10-24T11:11:30.234Z,100360.06
2022-10-24T11:14:09.180Z,100359.69
2022-10-24T11:16:36.226Z,100360.72
2022-10-24T11:19:26.683Z,100363.16
2022-10-24T11:21:57.098Z,100358.13
2022-10-24T11:24:25.167Z,100350.84
2022-10-24T11:27:03.332Z,100350.72
2022-10-24T11:29:34.107Z,100342.59
2022-10-24T11:32:24.186Z,100330.06
2022-10-24T11:35:29.036Z,100335.63
2022-10-24T11:38:17.415Z,100328.63
2022-10-24T11:40:48.471Z,100321.56
2022-10-24T11:43:24.572Z,100319.03
2022-10-24T11:46:12.788Z,100308.47
2022-10-24T11:48:53.190Z,100311.31
2022-10-24T11:51:25.406Z,100311.66
2022-10-24T11:53:59.558Z,100318.84
2022-10-24T11:56:43.214Z,100306.28
2022-10-24T11:59:18.734Z,100314.19
2022-10-24T12:02:03.302Z,100319.84
2022-10-24T12:04:42.136Z,100308.78
2022-10-24T12:07:47.791Z,100298.25
2022-10-24T12:10:29.042Z,100297.47
2022-10-24T12:13:23.669Z,100289.13
2022-10-24T12:16:14.464Z,100286.00
2022-10-24T12:18:48.808Z,100282.03
2022-10-24T12:21:25.961Z,100282.44
2022-10-24T12:23:59.106Z,100277.16
2022-10-24T12:26:37.473Z,100282.66
2022-10-24T12:29:06.888Z,100285.53
2022-10-24T12:31:38.231Z,100277.34
2022-10-24T12:34:20.655Z,100288.09
2022-10-24T12:37:08.613Z,100297.75
2022-10-24T12:39:37.039Z,100293.50
2022-10-24T12:42:04.653Z,100289.44
2022-10-24T12:44:34.379Z,100291.09
2022-10-24T12:47:22.780Z,100289.78
2022-10-24T12:49:52.017Z,100283.31
2022-10-24T12:52:31.135Z,100293.94
2022-10-24T12:54:59.302Z,100286.72
2022-10-24T12:57:36.538Z,100277.47
2022-10-24T13:00:21.719Z,100275.69
2022-10-24T13:03:00.863Z,100279.97
2022-10-24T13:05:52.841Z,100266.13
2022-10-24T13:08:43.628Z,100274.47
2022-10-24T13:11:36.962Z,100276.41
2022-10-24T13:14:06.429Z,100271.53
2022-10-24T13:16:45.263Z,100268.56
2022-10-24T13:19:18.468Z,100276.44
2022-10-24T13:21:48.143Z,100279.50
2022-10-24T13:24:19.819Z,100276.88
2022-10-24T13:26:56.717Z,100270.03
2022-10-24T13:29:23.354Z,100279.00
2022-10-24T13:31:55.606Z,100278.75
2022-10-24T13:34:44.723Z,100282.06
2022-10-24T13:37:27.019Z,100282.50
2022-10-24T13:40:02.745Z,100272.03
2022-10-24T13:42:43.225Z,100280.69
2022-10-24T13:45:30.706Z,100280.69
2022-10-24T13:48:13.093Z,100276.25
2022-10-24T13:50:51.761Z,100280.69
2022-10-24T13:53:31.092Z,100282.19
2022-10-24T13:56:03.364Z,100285.84
2022-10-24T13:58:41.027Z,100282.63
2022-10-24T14:01:25.805Z,100292.25
2022-10-24T14:03:54.486Z,100292.25
2022-10-24T14:06:26.749Z,100292.25
2022-10-24T14:09:04.202Z,100301.03
2022-10-24T14:11:35.266Z,100302.22
2022-10-24T14:14:06.081Z,100308.75
2022-10-24T14:16:35.494Z,100316.31
2022-10-24T14:19:23.570Z,100311.19
2022-10-24T14:21:54.910Z,100316.69
2022-10-24T14:24:23.571Z,100312.75
2022-10-24T14:26:53.505Z,100312.75
2022-10-24T14:29:33.997Z,100318.63
2022-10-24T14:32:05.237Z,100317.63
2022-10-24T14:34:36.288Z,100320.31
2022-10-24T14:37:06.566Z,100321.91
2022-10-24T14:39:33.999Z,100321.00
2022-10-24T14:42:01.749Z,100323.00
2022-10-24T14:44:29.060Z,100322.41
2022-10-24T14:47:21.729Z,100327.91
2022-10-24T14:49:48.541Z,100329.78
2022-10-24T14:52:15.335Z,100323.91
2022-10-24T14:54:51.049Z,100326.34
2022-10-24T14:57:21.964Z,100324.31
2022-10-24T14:59:52.486Z,100320.25
2022-10-24T15:02:19.663Z,100315.63
2022-10-24T15:04:47.888Z,100314.81
2022-10-24T15:07:14.893Z,100318.97
2022-10-24T15:09:59.449Z,100315.81
2022-10-24T15:12:48.306Z,100317.59
2022-10-24T15:15:22.485Z,100312.94
2022-10-24T15:17:51.704Z,100313.88
2022-10-24T15:20:22.384Z,100313.13
2022-10-24T15:22:56.348Z,100312.53
2022-10-24T15:25:26.687Z,100316.00
2022-10-24T15:27:59.269Z,100325.06
2022-10-24T15:30:29.256Z,100331.72
2022-10-24T15:32:57.984Z,100323.63
2022-10-24T15:35:25.255Z,100328.13
2022-10-24T15:38:10.477Z,100336.94
2022-10-24T15:40:45.146Z,100337.13
2022-10-24T15:43:13.607Z,100344.31
2022-10-24T15:45:40.577Z,100349.28
2022-10-24T15:48:07.472Z,100358.75
2022-10-24T15:50:34.700Z,100352.34
2022-10-24T15:53:04.273Z,100353.63
2022-10-24T15:55:32.354Z,100349.00
2022-10-24T15:58:03.029Z,100341.78
2022-10-24T16:00:29.808Z,100350.91
2022-10-24T16:03:00.721Z,100351.53
2022-10-24T16:05:38.159Z,100353.63
2022-10-24T16:08:05.647Z,100353.63
2022-10-24T16:10:32.588Z,100357.16
2022-10-24T16:12:59.183Z,100357.00
2022-10-24T16:15:34.358Z,100366.91
2022-10-24T16:18:01.092Z,100368.34
2022-10-24T16:20:27.790Z,100373.63
2022-10-24T16:22:54.886Z,100377.94
2022-10-24T16:25:29.391Z,100374.28
2022-10-24T16:27:56.828Z,100378.56
2022-10-24T16:30:26.497Z,100383.22
2022-10-24T16:32:52.985Z,100389.56
2022-10-24T16:35:28.701Z,100392.72
2022-10-24T16:37:57.552Z,100393.19
2022-10-24T16:40:26.850Z,100390.66
2022-10-24T16:42:56.122Z,100388.06
2022-10-24T16:45:23.426Z,100394.47
2022-10-24T16:47:50.983Z,100392.53
2022-10-24T16:50:23.981Z,100400.56
2022-10-24T16:52:55.412Z,100401.22
2022-10-24T16:55:22.954Z,100397.69
2022-10-24T16:57:49.845Z,100397.19
2022-10-24T17:00:18.382Z,100397.97
2022-10-24T17:02:46.219Z,100394.47
2022-10-24T17:05:13.600Z,100401.50
2022-10-24T17:07:42.059Z,100399.22
2022-10-24T17:10:11.608Z,100404.00
2022-10-24T17:12:39.453Z,100409.25
2022-10-24T17:15:06.996Z,100411.47
2022-10-24T17:17:33.891Z,100414.69
2022-10-24T17:20:01.663Z,100420.44
2022-10-24T17:22:29.273Z,100421.59
2022-10-24T17:24:56.472Z,100420.16
2022-10-24T17:27:23.379Z,100416.97
2022-10-24T17:29:50.578Z,100429.78
2022-10-24T17:32:18.298Z,100427.53
2022-10-24T17:34:50.101Z,100427.69
2022-10-24T17:37:20.201Z,100439.06
2022-10-24T17:40:05.936Z,100446.06
2022-10-24T17:42:33.434Z,100463.97
2022-10-24T17:45:00.481Z,100462.34
2022-10-24T17:47:27.216Z,100454.00
2022-10-24T17:49:53.984Z,100453.19
2022-10-24T17:52:24.563Z,100461.41
2022-10-24T17:54:54.796Z,100465.81
2022-10-24T17:57:21.403Z,100476.31
2022-10-24T17:59:48.197Z,100474.47
2022-10-24T18:02:17.360Z,100476.31
2022-10-24T18:04:44.960Z,100486.16
2022-10-24T18:07:11.793Z,100488.38
2022-10-24T18:09:40.065Z,100489.00
2022-10-24T18:12:07.415Z,100496.16
2022-10-24T18:14:37.462Z,100491.81
2022-10-24T18:17:04.418Z,100497.38
2022-10-24T18:19:31.362Z,100489.84
2022-10-24T18:21:58.025Z,100495.28
2022-10-24T18:24:25.468Z,100488.06
2022-10-24T18:26:52.532Z,100479.84
2022-10-24T18:29:19.229Z,100483.19
2022-10-24T18:31:46.117Z,100490.34
2022-10-24T18:34:13.142Z,100487.13
2022-10-24T18:36:39.970Z,100485.56
2022-10-24T18:39:07.005Z,100492.19
2022-10-24T18:41:56.184Z,100490.47
2022-10-24T18:44:28.774Z,100493.47
2022-10-24T18:47:01.337Z,100503.81
2022-10-24T18:49:33.543Z,100506.81
2022-10-24T18:52:26.789Z,100499.41
2022-10-24T18:55:04.060Z,100511.66
2022-10-24T18:57:33.120Z,100503.25
2022-10-24T19:00:00.750Z,100509.53
2022-10-24T19:02:43.236Z,100516.25
2022-10-24T19:05:39.075Z,100510.25
2022-10-24T19:08:12.776Z,100511.22
2022-10-24T19:10:40.190Z,100516.16
2022-10-24T19:13:07.945Z,100527.50
2022-10-24T19:15:38.210Z,100528.28
2022-10-24T19:18:05.554Z,100526.47
2022-10-24T19:20:35.124Z,100528.47
2022-10-24T19:23:05.116Z,100528.66
2022-10-24T19:25:33.440Z,100523.25
2022-10-24T19:28:00.261Z,100536.38
2022-10-24T19:30:27.018Z,100528.66
2022-10-24T19:32:55.294Z,100530.06
2022-10-24T19:35:22.201Z,100543.66
2022-10-24T19:37:49.389Z,100550.50
2022-10-24T19:40:16.910Z,100540.63
2022-10-24T19:42:43.584Z,100540.56
2022-10-24T19:45:10.326Z,100546.16
2022-10-24T19:47:36.901Z,100534.19
2022-10-24T19:50:03.728Z,100527.88
2022-10-24T19:52:30.494Z,100535.38
2022-10-24T19:54:57.380Z,100540.22
2022-10-24T19:57:24.099Z,100544.44
2022-10-24T19:59:50.719Z,100548.91
2022-10-24T20:02:17.802Z,100551.63
2022-10-24T20:04:48.903Z,100557.84
2022-10-24T20:07:17.463Z,100552.72
2022-10-24T20:09:44.435Z,100561.34
2022-10-24T20:12:11.575Z,100567.44
2022-10-24T20:14:38.178Z,100573.75
2022-10-24T20:17:04.801Z,100577.34
2022-10-24T20:19:31.469Z,100578.16
2022-10-24T20:22:00.335Z,100574.75
2022-10-24T20:24:30.526Z,100574.28
2022-10-24T20:26:57.235Z,100591.78
2022-10-24T20:29:23.877Z,100586.50
2022-10-24T20:31:50.673Z,100584.31
2022-10-24T20:34:17.517Z,100581.88
2022-10-24T20:36:47.161Z,100590.38
2022-10-24T20:39:16.139Z,100589.63
2022-10-24T20:41:43.255Z,100593.50
2022-10-24T20:44:11.150Z,100580.41
2022-10-24T20:46:38.021Z,100603.16
2022-10-24T20:49:05.120Z,100594.53
2022-10-24T20:51:31.835Z,100617.31
2022-10-24T20:53:58.796Z,100612.78
2022-10-24T20:56:26.590Z,100617.38
2022-10-24T20:58:55.356Z,100613.00
2022-10-24T21:01:24.479Z,100623.84
2022-10-24T21:03:53.171Z,100623.41
2022-10-24T21:06:22.562Z,100634.28
2022-10-24T21:08:51.016Z,100638.28
2022-10-24T21:11:24.581Z,100647.19
2022-10-24T21:13:55.992Z,100637.50
2022-10-24T21:16:23.482Z,100645.44
2022-10-24T21:18:50.307Z,100648.47
2022-10-24T21:21:17.708Z,100641.44
2022-10-24T21:23:44.397Z,100653.56
2022-10-24T21:26:14.253Z,100647.41
2022-10-24T21:28:41.094Z,100646.06
2022-10-24T21:31:10.395Z,100645.50
2022-10-24T21:33:38.113Z,100645.72
2022-10-24T21:36:10.928Z,100659.19
2022-10-24T21:38:37.927Z,100661.44
2022-10-24T21:41:07.747Z,100662.59
2022-10-24T21:43:37.132Z,100663.63
2022-10-24T21:46:12.771Z,100675.50
2022-10-24T21:48:40.833Z,100669.31
2022-10-24T21:51:17.124Z,100671.28
2022-10-24T21:53:50.484Z,100669.69
2022-10-24T21:56:20.737Z,100675.13
2022-10-24T21:58:49.051Z,100677.28
2022-10-24T22:01:18.949Z,100679.50
2022-10-24T22:03:46.446Z,100685.44
2022-10-24T22:06:15.624Z,100677.88
2022-10-24T22:08:43.317Z,100683.38
2022-10-24T22:11:12.321Z,100685.56
2022-10-24T22:13:39.362Z,100699.56
2022-10-24T22:16:06.996Z,100706.56
2022-10-24T22:18:34.325Z,100707.94
2022-10-24T22:21:02.617Z,100710.59
2022-10-24T22:23:29.532Z,100714.69
2022-10-24T22:25:58.324Z,100709.53
2022-10-24T22:28:25.504Z,100706.44
2022-10-24T22:30:52.429Z,100728.50
2022-10-24T22:33:42.166Z,100724.69
2022-10-24T22:36:19.718Z,100727.38
2022-10-24T22:38:47.034Z,100719.41
2022-10-24T22:41:13.988Z,100717.56
2022-10-24T22:43:40.930Z,100722.22
2022-10-24T22:46:40.187Z,100720.63
2022-10-24T22:49:18.048Z,100723.91
2022-10-24T22:51:44.949Z,100721.75
2022-10-24T22:54:19.707Z,100725.53
2022-10-24T22:56:46.850Z,100732.53
2022-10-24T22:59:16.403Z,100729.31
2022-10-24T23:01:58.556Z,100728.19
2022-10-24T23:04:46.506Z,100726.09
2022-10-24T23:07:55.428Z,100729.09
2022-10-24T23:10:25.189Z,100737.44
2022-10-24T23:12:52.437Z,100742.31
2022-10-24T23:15:20.958Z,100735.91
2022-10-24T23:17:49.006Z,100738.31
2022-10-24T23:20:34.620Z,100742.34
2022-10-24T23:23:15.756Z,100741.31
2022-10-24T23:25:52.145Z,100746.16
2022-10-24T23:28:35.061Z,100740.22
2022-10-24T23:33:30.187Z,100738.34
2022-10-24T23:36:00.372Z,100738.09
2022-10-24T23:38:27.880Z,100740.50
2022-10-24T23:40:55.015Z,100748.59
2022-10-24T23:43:23.058Z,100744.25
2022-10-24T23:45:59.080Z,100742.38
2022-10-24T23:48:25.814Z,100741.34
2022-10-24T23:51:17.776Z,100747.25
2022-10-24T23:53:54.841Z,100748.31
2022-10-24T23:56:24.395Z,100737.28
2022-10-24T23:58:51.676Z,100743.50
